sensor_id;sensor_type;location;lat;lon;timestamp;P1;durP1;ratioP1;P2;durP2;ratioP2
66380;SDS011;53177;52.648;1.214;2023-06-26T00:02:13;4.50;;;1.30;;
66380;SDS011;53177;52.648;1.214;2023-06-26T00:04:39;4.97;;;1.40;;
66380;SDS011;53177;52.648;1.214;2023-06-26T00:07:04;4.67;;;1.20;;
66380;SDS011;53177;52.648;1.214;2023-06-26T00:09:30;4.77;;;1.20;;
66380;SDS011;53177;52.648;1.214;2023-06-26T00:11:55;4.37;;;1.30;;
66380;SDS011;53177;52.648;1.214;2023-06-26T00:14:21;4.60;;;1.20;;
66380;SDS011;53177;52.648;1.214;2023-06-26T00:16:46;4.35;;;1.33;;
66380;SDS011;53177;52.648;1.214;2023-06-26T00:19:14;3.73;;;1.10;;
66380;SDS011;53177;52.648;1.214;2023-06-26T00:21:40;3.80;;;1.13;;
66380;SDS011;53177;52.648;1.214;2023-06-26T00:24:05;4.40;;;1.00;;
66380;SDS011;53177;52.648;1.214;2023-06-26T00:26:31;4.75;;;1.27;;
66380;SDS011;53177;52.648;1.214;2023-06-26T00:28:56;5.33;;;1.30;;
66380;SDS011;53177;52.648;1.214;2023-06-26T00:31:22;3.40;;;1.03;;
66380;SDS011;53177;52.648;1.214;2023-06-26T00:33:47;4.30;;;1.10;;
66380;SDS011;53177;52.648;1.214;2023-06-26T00:36:12;4.13;;;1.20;;
66380;SDS011;53177;52.648;1.214;2023-06-26T00:38:38;5.23;;;1.00;;
66380;SDS011;53177;52.648;1.214;2023-06-26T00:41:04;4.85;;;1.17;;
66380;SDS011;53177;52.648;1.214;2023-06-26T00:43:30;4.15;;;1.20;;
66380;SDS011;53177;52.648;1.214;2023-06-26T00:45:55;4.73;;;1.20;;
66380;SDS011;53177;52.648;1.214;2023-06-26T00:48:20;4.07;;;1.10;;
66380;SDS011;53177;52.648;1.214;2023-06-26T00:50:46;5.13;;;1.10;;
66380;SDS011;53177;52.648;1.214;2023-06-26T00:53:12;4.30;;;1.00;;
66380;SDS011;53177;52.648;1.214;2023-06-26T00:55:37;5.00;;;1.13;;
66380;SDS011;53177;52.648;1.214;2023-06-26T00:58:03;5.38;;;1.33;;
66380;SDS011;53177;52.648;1.214;2023-06-26T01:00:29;4.27;;;1.13;;
66380;SDS011;53177;52.648;1.214;2023-06-26T01:02:55;5.65;;;1.10;;
66380;SDS011;53177;52.648;1.214;2023-06-26T01:05:24;4.70;;;1.10;;
66380;SDS011;53177;52.648;1.214;2023-06-26T01:07:50;5.27;;;1.60;;
66380;SDS011;53177;52.648;1.214;2023-06-26T01:10:16;3.80;;;1.33;;
66380;SDS011;53177;52.648;1.214;2023-06-26T01:12:43;4.35;;;1.10;;
66380;SDS011;53177;52.648;1.214;2023-06-26T01:15:08;3.70;;;1.10;;
66380;SDS011;53177;52.648;1.214;2023-06-26T01:17:34;3.95;;;1.30;;
66380;SDS011;53177;52.648;1.214;2023-06-26T01:20:03;5.55;;;1.30;;
66380;SDS011;53177;52.648;1.214;2023-06-26T01:23:19;4.37;;;1.17;;
66380;SDS011;53177;52.648;1.214;2023-06-26T01:28:17;4.18;;;1.10;;
66380;SDS011;53177;52.648;1.214;2023-06-26T01:30:44;3.75;;;1.17;;
66380;SDS011;53177;52.648;1.214;2023-06-26T01:33:11;5.03;;;1.30;;
66380;SDS011;53177;52.648;1.214;2023-06-26T01:35:38;6.50;;;1.10;;
66380;SDS011;53177;52.648;1.214;2023-06-26T01:38:14;4.43;;;1.10;;
66380;SDS011;53177;52.648;1.214;2023-06-26T01:40:41;4.35;;;1.15;;
66380;SDS011;53177;52.648;1.214;2023-06-26T01:43:10;4.22;;;1.00;;
66380;SDS011;53177;52.648;1.214;2023-06-26T01:45:43;4.03;;;1.15;;
66380;SDS011;53177;52.648;1.214;2023-06-26T01:48:12;4.17;;;1.10;;
66380;SDS011;53177;52.648;1.214;2023-06-26T01:50:41;4.68;;;1.23;;
66380;SDS011;53177;52.648;1.214;2023-06-26T01:53:13;4.38;;;1.13;;
66380;SDS011;53177;52.648;1.214;2023-06-26T01:58:17;4.82;;;1.08;;
66380;SDS011;53177;52.648;1.214;2023-06-26T02:00:47;4.07;;;1.00;;
66380;SDS011;53177;52.648;1.214;2023-06-26T02:03:13;4.72;;;1.17;;
66380;SDS011;53177;52.648;1.214;2023-06-26T02:05:38;4.60;;;1.00;;
66380;SDS011;53177;52.648;1.214;2023-06-26T02:08:04;4.07;;;1.00;;
66380;SDS011;53177;52.648;1.214;2023-06-26T02:10:30;3.92;;;1.20;;
66380;SDS011;53177;52.648;1.214;2023-06-26T02:12:55;5.93;;;1.33;;
66380;SDS011;53177;52.648;1.214;2023-06-26T02:15:21;4.87;;;1.13;;
66380;SDS011;53177;52.648;1.214;2023-06-26T02:17:46;3.43;;;1.00;;
66380;SDS011;53177;52.648;1.214;2023-06-26T02:20:13;4.88;;;1.20;;
66380;SDS011;53177;52.648;1.214;2023-06-26T02:22:39;4.10;;;1.00;;
66380;SDS011;53177;52.648;1.214;2023-06-26T02:25:04;4.47;;;1.07;;
66380;SDS011;53177;52.648;1.214;2023-06-26T02:27:30;3.65;;;1.02;;
66380;SDS011;53177;52.648;1.214;2023-06-26T02:29:56;3.73;;;0.90;;
66380;SDS011;53177;52.648;1.214;2023-06-26T02:32:21;3.67;;;1.00;;
66380;SDS011;53177;52.648;1.214;2023-06-26T02:34:47;3.83;;;1.00;;
66380;SDS011;53177;52.648;1.214;2023-06-26T02:37:12;4.80;;;1.17;;
66380;SDS011;53177;52.648;1.214;2023-06-26T02:39:37;3.53;;;0.90;;
66380;SDS011;53177;52.648;1.214;2023-06-26T02:42:03;4.40;;;1.10;;
66380;SDS011;53177;52.648;1.214;2023-06-26T02:44:28;3.90;;;1.10;;
66380;SDS011;53177;52.648;1.214;2023-06-26T02:46:54;5.27;;;1.23;;
66380;SDS011;53177;52.648;1.214;2023-06-26T02:49:20;5.27;;;1.13;;
66380;SDS011;53177;52.648;1.214;2023-06-26T02:51:46;4.78;;;1.13;;
66380;SDS011;53177;52.648;1.214;2023-06-26T02:54:28;5.40;;;1.13;;
66380;SDS011;53177;52.648;1.214;2023-06-26T02:57:01;4.95;;;1.20;;
66380;SDS011;53177;52.648;1.214;2023-06-26T02:59:29;4.95;;;1.15;;
66380;SDS011;53177;52.648;1.214;2023-06-26T03:02:06;3.90;;;0.90;;
66380;SDS011;53177;52.648;1.214;2023-06-26T03:04:33;6.55;;;1.33;;
66380;SDS011;53177;52.648;1.214;2023-06-26T03:07:02;3.90;;;1.07;;
66380;SDS011;53177;52.648;1.214;2023-06-26T03:09:38;5.13;;;0.90;;
66380;SDS011;53177;52.648;1.214;2023-06-26T03:12:05;5.00;;;1.10;;
66380;SDS011;53177;52.648;1.214;2023-06-26T03:14:31;4.45;;;1.40;;
66380;SDS011;53177;52.648;1.214;2023-06-26T03:16:57;4.13;;;1.00;;
66380;SDS011;53177;52.648;1.214;2023-06-26T03:19:23;4.68;;;1.00;;
66380;SDS011;53177;52.648;1.214;2023-06-26T03:21:49;4.50;;;0.90;;
66380;SDS011;53177;52.648;1.214;2023-06-26T03:24:15;4.40;;;1.13;;
66380;SDS011;53177;52.648;1.214;2023-06-26T03:26:40;4.43;;;1.03;;
66380;SDS011;53177;52.648;1.214;2023-06-26T03:29:05;5.13;;;1.10;;
66380;SDS011;53177;52.648;1.214;2023-06-26T03:31:31;4.03;;;1.10;;
66380;SDS011;53177;52.648;1.214;2023-06-26T03:33:56;4.63;;;1.20;;
66380;SDS011;53177;52.648;1.214;2023-06-26T03:36:22;4.05;;;1.00;;
66380;SDS011;53177;52.648;1.214;2023-06-26T03:38:47;3.97;;;1.03;;
66380;SDS011;53177;52.648;1.214;2023-06-26T03:41:12;3.63;;;1.20;;
66380;SDS011;53177;52.648;1.214;2023-06-26T03:43:38;4.10;;;1.57;;
66380;SDS011;53177;52.648;1.214;2023-06-26T03:46:03;4.47;;;1.07;;
66380;SDS011;53177;52.648;1.214;2023-06-26T03:48:29;4.13;;;1.10;;
66380;SDS011;53177;52.648;1.214;2023-06-26T03:50:54;4.73;;;1.20;;
66380;SDS011;53177;52.648;1.214;2023-06-26T03:53:20;4.93;;;1.00;;
66380;SDS011;53177;52.648;1.214;2023-06-26T03:55:45;5.17;;;1.13;;
66380;SDS011;53177;52.648;1.214;2023-06-26T03:58:10;4.22;;;1.05;;
66380;SDS011;53177;52.648;1.214;2023-06-26T04:00:36;3.97;;;1.00;;
66380;SDS011;53177;52.648;1.214;2023-06-26T04:03:01;6.67;;;1.30;;
66380;SDS011;53177;52.648;1.214;2023-06-26T04:05:27;5.97;;;1.25;;
66380;SDS011;53177;52.648;1.214;2023-06-26T04:07:53;4.03;;;1.20;;
66380;SDS011;53177;52.648;1.214;2023-06-26T04:10:20;4.28;;;1.10;;
66380;SDS011;53177;52.648;1.214;2023-06-26T04:12:46;5.15;;;1.10;;
66380;SDS011;53177;52.648;1.214;2023-06-26T04:15:13;4.33;;;1.17;;
66380;SDS011;53177;52.648;1.214;2023-06-26T04:17:38;5.18;;;1.20;;
66380;SDS011;53177;52.648;1.214;2023-06-26T04:20:04;4.13;;;1.23;;
66380;SDS011;53177;52.648;1.214;2023-06-26T04:22:33;5.45;;;1.40;;
66380;SDS011;53177;52.648;1.214;2023-06-26T04:25:01;5.50;;;1.37;;
66380;SDS011;53177;52.648;1.214;2023-06-26T04:27:28;4.88;;;1.40;;
66380;SDS011;53177;52.648;1.214;2023-06-26T04:29:53;6.50;;;1.57;;
66380;SDS011;53177;52.648;1.214;2023-06-26T04:32:18;3.67;;;1.33;;
66380;SDS011;53177;52.648;1.214;2023-06-26T04:34:44;4.67;;;1.40;;
66380;SDS011;53177;52.648;1.214;2023-06-26T04:37:09;6.80;;;1.43;;
66380;SDS011;53177;52.648;1.214;2023-06-26T04:39:35;4.33;;;1.40;;
66380;SDS011;53177;52.648;1.214;2023-06-26T04:42:02;5.07;;;1.35;;
66380;SDS011;53177;52.648;1.214;2023-06-26T04:44:28;5.63;;;1.50;;
66380;SDS011;53177;52.648;1.214;2023-06-26T04:46:53;6.00;;;1.70;;
66380;SDS011;53177;52.648;1.214;2023-06-26T04:49:19;6.30;;;1.67;;
66380;SDS011;53177;52.648;1.214;2023-06-26T04:51:45;5.20;;;1.67;;
66380;SDS011;53177;52.648;1.214;2023-06-26T04:54:11;5.87;;;1.77;;
66380;SDS011;53177;52.648;1.214;2023-06-26T04:56:36;6.68;;;1.70;;
66380;SDS011;53177;52.648;1.214;2023-06-26T04:59:02;4.47;;;1.37;;
66380;SDS011;53177;52.648;1.214;2023-06-26T05:01:28;5.68;;;1.52;;
66380;SDS011;53177;52.648;1.214;2023-06-26T05:03:58;8.52;;;1.60;;
66380;SDS011;53177;52.648;1.214;2023-06-26T05:06:23;6.22;;;1.77;;
66380;SDS011;53177;52.648;1.214;2023-06-26T05:08:49;4.70;;;1.60;;
66380;SDS011;53177;52.648;1.214;2023-06-26T05:11:14;6.37;;;1.40;;
66380;SDS011;53177;52.648;1.214;2023-06-26T05:13:40;5.95;;;1.60;;
66380;SDS011;53177;52.648;1.214;2023-06-26T05:16:05;4.60;;;1.30;;
66380;SDS011;53177;52.648;1.214;2023-06-26T05:18:33;4.82;;;1.50;;
66380;SDS011;53177;52.648;1.214;2023-06-26T05:20:59;5.57;;;1.60;;
66380;SDS011;53177;52.648;1.214;2023-06-26T05:23:25;5.40;;;1.50;;
66380;SDS011;53177;52.648;1.214;2023-06-26T05:25:51;6.60;;;1.52;;
66380;SDS011;53177;52.648;1.214;2023-06-26T05:28:17;6.97;;;1.40;;
66380;SDS011;53177;52.648;1.214;2023-06-26T05:30:43;4.63;;;1.40;;
66380;SDS011;53177;52.648;1.214;2023-06-26T05:33:10;4.93;;;1.50;;
66380;SDS011;53177;52.648;1.214;2023-06-26T05:35:37;5.10;;;1.63;;
66380;SDS011;53177;52.648;1.214;2023-06-26T05:38:02;5.83;;;1.97;;
66380;SDS011;53177;52.648;1.214;2023-06-26T05:40:28;6.63;;;1.93;;
66380;SDS011;53177;52.648;1.214;2023-06-26T05:42:54;5.60;;;1.40;;
66380;SDS011;53177;52.648;1.214;2023-06-26T05:45:20;6.72;;;1.45;;
66380;SDS011;53177;52.648;1.214;2023-06-26T05:47:46;8.40;;;1.70;;
66380;SDS011;53177;52.648;1.214;2023-06-26T05:50:12;4.23;;;1.40;;
66380;SDS011;53177;52.648;1.214;2023-06-26T05:52:39;7.20;;;1.70;;
66380;SDS011;53177;52.648;1.214;2023-06-26T05:55:05;7.35;;;1.90;;
66380;SDS011;53177;52.648;1.214;2023-06-26T05:57:30;6.13;;;1.87;;
66380;SDS011;53177;52.648;1.214;2023-06-26T05:59:56;8.63;;;1.80;;
66380;SDS011;53177;52.648;1.214;2023-06-26T06:02:22;5.37;;;1.40;;
66380;SDS011;53177;52.648;1.214;2023-06-26T06:04:47;6.25;;;1.83;;
66380;SDS011;53177;52.648;1.214;2023-06-26T06:07:13;6.03;;;2.10;;
66380;SDS011;53177;52.648;1.214;2023-06-26T06:09:39;6.30;;;1.67;;
66380;SDS011;53177;52.648;1.214;2023-06-26T06:12:05;4.70;;;1.73;;
66380;SDS011;53177;52.648;1.214;2023-06-26T06:14:31;5.63;;;1.80;;
66380;SDS011;53177;52.648;1.214;2023-06-26T06:16:57;7.90;;;1.60;;
66380;SDS011;53177;52.648;1.214;2023-06-26T06:19:22;9.73;;;1.73;;
66380;SDS011;53177;52.648;1.214;2023-06-26T06:21:48;6.50;;;1.70;;
66380;SDS011;53177;52.648;1.214;2023-06-26T06:24:13;6.17;;;1.90;;
66380;SDS011;53177;52.648;1.214;2023-06-26T06:26:39;6.53;;;1.70;;
66380;SDS011;53177;52.648;1.214;2023-06-26T06:29:04;5.77;;;2.20;;
66380;SDS011;53177;52.648;1.214;2023-06-26T06:31:30;4.82;;;1.70;;
66380;SDS011;53177;52.648;1.214;2023-06-26T06:33:56;6.53;;;1.70;;
66380;SDS011;53177;52.648;1.214;2023-06-26T06:36:21;4.40;;;1.50;;
66380;SDS011;53177;52.648;1.214;2023-06-26T06:38:47;6.30;;;1.80;;
66380;SDS011;53177;52.648;1.214;2023-06-26T06:41:12;7.47;;;1.60;;
66380;SDS011;53177;52.648;1.214;2023-06-26T06:43:38;8.70;;;2.20;;
66380;SDS011;53177;52.648;1.214;2023-06-26T06:46:04;7.82;;;1.70;;
66380;SDS011;53177;52.648;1.214;2023-06-26T06:48:30;6.80;;;2.03;;
66380;SDS011;53177;52.648;1.214;2023-06-26T06:50:56;7.68;;;2.08;;
66380;SDS011;53177;52.648;1.214;2023-06-26T06:53:22;5.53;;;1.77;;
66380;SDS011;53177;52.648;1.214;2023-06-26T06:55:48;5.70;;;1.70;;
66380;SDS011;53177;52.648;1.214;2023-06-26T06:58:14;5.93;;;1.80;;
66380;SDS011;53177;52.648;1.214;2023-06-26T07:00:41;6.07;;;1.63;;
66380;SDS011;53177;52.648;1.214;2023-06-26T07:03:07;8.37;;;1.60;;
66380;SDS011;53177;52.648;1.214;2023-06-26T07:05:32;5.00;;;1.57;;
66380;SDS011;53177;52.648;1.214;2023-06-26T07:07:57;6.80;;;1.53;;
66380;SDS011;53177;52.648;1.214;2023-06-26T07:10:23;9.07;;;1.80;;
66380;SDS011;53177;52.648;1.214;2023-06-26T07:12:49;5.07;;;1.50;;
66380;SDS011;53177;52.648;1.214;2023-06-26T07:15:15;4.47;;;1.60;;
66380;SDS011;53177;52.648;1.214;2023-06-26T07:17:40;5.90;;;1.60;;
66380;SDS011;53177;52.648;1.214;2023-06-26T07:20:05;4.77;;;1.53;;
66380;SDS011;53177;52.648;1.214;2023-06-26T07:22:33;5.67;;;1.70;;
66380;SDS011;53177;52.648;1.214;2023-06-26T07:24:59;5.32;;;1.70;;
66380;SDS011;53177;52.648;1.214;2023-06-26T07:27:24;7.07;;;1.50;;
66380;SDS011;53177;52.648;1.214;2023-06-26T07:29:50;4.67;;;1.77;;
66380;SDS011;53177;52.648;1.214;2023-06-26T07:32:15;4.57;;;1.50;;
66380;SDS011;53177;52.648;1.214;2023-06-26T07:34:41;5.23;;;1.60;;
66380;SDS011;53177;52.648;1.214;2023-06-26T07:37:06;6.15;;;1.60;;
66380;SDS011;53177;52.648;1.214;2023-06-26T07:39:32;3.90;;;1.50;;
66380;SDS011;53177;52.648;1.214;2023-06-26T07:41:58;5.13;;;1.40;;
66380;SDS011;53177;52.648;1.214;2023-06-26T07:44:24;6.57;;;1.60;;
66380;SDS011;53177;52.648;1.214;2023-06-26T07:46:50;5.72;;;1.50;;
66380;SDS011;53177;52.648;1.214;2023-06-26T07:49:15;5.73;;;1.60;;
66380;SDS011;53177;52.648;1.214;2023-06-26T07:51:41;5.60;;;1.50;;
66380;SDS011;53177;52.648;1.214;2023-06-26T07:54:06;5.30;;;1.70;;
66380;SDS011;53177;52.648;1.214;2023-06-26T07:56:34;5.63;;;1.57;;
66380;SDS011;53177;52.648;1.214;2023-06-26T07:59:16;5.97;;;1.50;;
66380;SDS011;53177;52.648;1.214;2023-06-26T08:01:42;6.23;;;1.83;;
66380;SDS011;53177;52.648;1.214;2023-06-26T08:04:07;6.90;;;1.70;;
66380;SDS011;53177;52.648;1.214;2023-06-26T08:06:32;5.27;;;1.53;;
66380;SDS011;53177;52.648;1.214;2023-06-26T08:08:58;7.60;;;1.70;;
66380;SDS011;53177;52.648;1.214;2023-06-26T08:11:23;6.55;;;1.52;;
66380;SDS011;53177;52.648;1.214;2023-06-26T08:13:48;5.30;;;1.50;;
66380;SDS011;53177;52.648;1.214;2023-06-26T08:16:14;7.40;;;1.53;;
66380;SDS011;53177;52.648;1.214;2023-06-26T08:18:39;4.80;;;1.40;;
66380;SDS011;53177;52.648;1.214;2023-06-26T08:21:04;5.13;;;1.50;;
66380;SDS011;53177;52.648;1.214;2023-06-26T08:23:30;5.07;;;1.20;;
66380;SDS011;53177;52.648;1.214;2023-06-26T08:25:56;6.13;;;1.20;;
66380;SDS011;53177;52.648;1.214;2023-06-26T08:28:23;5.68;;;1.40;;
66380;SDS011;53177;52.648;1.214;2023-06-26T08:30:49;4.90;;;1.20;;
66380;SDS011;53177;52.648;1.214;2023-06-26T08:33:14;6.10;;;1.30;;
66380;SDS011;53177;52.648;1.214;2023-06-26T08:35:39;5.30;;;1.40;;
66380;SDS011;53177;52.648;1.214;2023-06-26T08:38:05;4.83;;;1.40;;
66380;SDS011;53177;52.648;1.214;2023-06-26T08:40:31;6.47;;;1.60;;
66380;SDS011;53177;52.648;1.214;2023-06-26T08:42:57;4.27;;;1.30;;
66380;SDS011;53177;52.648;1.214;2023-06-26T08:45:22;4.60;;;1.17;;
66380;SDS011;53177;52.648;1.214;2023-06-26T08:47:47;5.15;;;1.30;;
66380;SDS011;53177;52.648;1.214;2023-06-26T08:50:17;5.17;;;1.23;;
66380;SDS011;53177;52.648;1.214;2023-06-26T08:55:35;4.35;;;1.35;;
66380;SDS011;53177;52.648;1.214;2023-06-26T08:58:03;4.50;;;1.20;;
66380;SDS011;53177;52.648;1.214;2023-06-26T09:00:29;5.40;;;1.38;;
66380;SDS011;53177;52.648;1.214;2023-06-26T09:02:56;7.43;;;1.60;;
66380;SDS011;53177;52.648;1.214;2023-06-26T09:05:22;4.75;;;1.40;;
66380;SDS011;53177;52.648;1.214;2023-06-26T09:07:47;6.57;;;1.53;;
66380;SDS011;53177;52.648;1.214;2023-06-26T09:10:13;5.17;;;1.30;;
66380;SDS011;53177;52.648;1.214;2023-06-26T09:12:39;4.65;;;1.10;;
66380;SDS011;53177;52.648;1.214;2023-06-26T09:15:05;6.13;;;1.60;;
66380;SDS011;53177;52.648;1.214;2023-06-26T09:17:38;4.38;;;1.40;;
66380;SDS011;53177;52.648;1.214;2023-06-26T09:20:05;5.90;;;1.50;;
66380;SDS011;53177;52.648;1.214;2023-06-26T09:22:33;4.97;;;1.38;;
66380;SDS011;53177;52.648;1.214;2023-06-26T09:25:03;6.20;;;1.40;;
66380;SDS011;53177;52.648;1.214;2023-06-26T09:27:30;5.15;;;1.50;;
66380;SDS011;53177;52.648;1.214;2023-06-26T09:29:55;5.00;;;1.20;;
66380;SDS011;53177;52.648;1.214;2023-06-26T09:32:24;4.38;;;1.38;;
66380;SDS011;53177;52.648;1.214;2023-06-26T09:34:51;5.30;;;1.35;;
66380;SDS011;53177;52.648;1.214;2023-06-26T09:37:17;6.60;;;1.45;;
66380;SDS011;53177;52.648;1.214;2023-06-26T09:39:43;5.97;;;1.30;;
66380;SDS011;53177;52.648;1.214;2023-06-26T09:42:09;6.53;;;1.30;;
66380;SDS011;53177;52.648;1.214;2023-06-26T09:44:36;5.82;;;1.25;;
66380;SDS011;53177;52.648;1.214;2023-06-26T09:47:02;4.97;;;1.27;;
66380;SDS011;53177;52.648;1.214;2023-06-26T09:49:30;4.95;;;1.45;;
66380;SDS011;53177;52.648;1.214;2023-06-26T09:51:56;3.50;;;1.20;;
66380;SDS011;53177;52.648;1.214;2023-06-26T09:54:21;5.30;;;1.30;;
66380;SDS011;53177;52.648;1.214;2023-06-26T09:56:47;5.27;;;1.20;;
66380;SDS011;53177;52.648;1.214;2023-06-26T09:59:12;7.13;;;1.40;;
66380;SDS011;53177;52.648;1.214;2023-06-26T10:01:43;4.93;;;1.27;;
66380;SDS011;53177;52.648;1.214;2023-06-26T10:04:10;4.55;;;1.15;;
66380;SDS011;53177;52.648;1.214;2023-06-26T10:06:37;4.97;;;1.67;;
66380;SDS011;53177;52.648;1.214;2023-06-26T10:09:06;5.65;;;1.30;;
66380;SDS011;53177;52.648;1.214;2023-06-26T10:11:55;4.95;;;1.27;;
66380;SDS011;53177;52.648;1.214;2023-06-26T10:14:27;4.90;;;1.47;;
66380;SDS011;53177;52.648;1.214;2023-06-26T10:16:57;7.20;;;1.20;;
66380;SDS011;53177;52.648;1.214;2023-06-26T10:19:24;6.30;;;1.38;;
66380;SDS011;53177;52.648;1.214;2023-06-26T10:21:53;4.07;;;1.23;;
66380;SDS011;53177;52.648;1.214;2023-06-26T10:24:20;4.85;;;1.40;;
66380;SDS011;53177;52.648;1.214;2023-06-26T10:26:49;4.53;;;1.30;;
66380;SDS011;53177;52.648;1.214;2023-06-26T10:29:19;6.53;;;1.27;;
66380;SDS011;53177;52.648;1.214;2023-06-26T10:31:50;5.95;;;1.30;;
66380;SDS011;53177;52.648;1.214;2023-06-26T10:34:17;5.32;;;1.20;;
66380;SDS011;53177;52.648;1.214;2023-06-26T10:36:43;3.70;;;1.00;;
66380;SDS011;53177;52.648;1.214;2023-06-26T10:39:09;5.03;;;1.10;;
66380;SDS011;53177;52.648;1.214;2023-06-26T10:41:41;3.90;;;1.00;;
66380;SDS011;53177;52.648;1.214;2023-06-26T10:44:11;4.70;;;1.20;;
66380;SDS011;53177;52.648;1.214;2023-06-26T10:46:51;3.90;;;1.23;;
66380;SDS011;53177;52.648;1.214;2023-06-26T10:49:18;6.22;;;1.30;;
66380;SDS011;53177;52.648;1.214;2023-06-26T10:51:48;3.97;;;1.13;;
66380;SDS011;53177;52.648;1.214;2023-06-26T10:54:15;4.53;;;1.20;;
66380;SDS011;53177;52.648;1.214;2023-06-26T10:56:42;6.07;;;1.20;;
66380;SDS011;53177;52.648;1.214;2023-06-26T10:59:13;4.32;;;1.10;;
66380;SDS011;53177;52.648;1.214;2023-06-26T11:01:41;4.82;;;1.20;;
66380;SDS011;53177;52.648;1.214;2023-06-26T11:04:10;5.00;;;1.10;;
66380;SDS011;53177;52.648;1.214;2023-06-26T11:06:37;5.47;;;1.17;;
66380;SDS011;53177;52.648;1.214;2023-06-26T11:09:07;5.55;;;1.20;;
66380;SDS011;53177;52.648;1.214;2023-06-26T11:14:20;4.65;;;1.20;;
66380;SDS011;53177;52.648;1.214;2023-06-26T11:16:47;4.63;;;1.10;;
66380;SDS011;53177;52.648;1.214;2023-06-26T11:19:14;4.88;;;1.10;;
66380;SDS011;53177;52.648;1.214;2023-06-26T11:21:41;3.80;;;1.25;;
66380;SDS011;53177;52.648;1.214;2023-06-26T11:24:06;3.93;;;1.20;;
66380;SDS011;53177;52.648;1.214;2023-06-26T11:26:42;4.00;;;1.10;;
66380;SDS011;53177;52.648;1.214;2023-06-26T11:29:09;4.85;;;1.20;;
66380;SDS011;53177;52.648;1.214;2023-06-26T11:31:38;3.83;;;1.00;;
66380;SDS011;53177;52.648;1.214;2023-06-26T11:34:09;3.67;;;0.93;;
66380;SDS011;53177;52.648;1.214;2023-06-26T11:36:40;4.70;;;1.20;;
66380;SDS011;53177;52.648;1.214;2023-06-26T11:39:07;5.50;;;1.15;;
66380;SDS011;53177;52.648;1.214;2023-06-26T11:41:36;6.75;;;1.30;;
66380;SDS011;53177;52.648;1.214;2023-06-26T11:44:04;4.43;;;1.48;;
66380;SDS011;53177;52.648;1.214;2023-06-26T11:46:31;3.57;;;1.10;;
66380;SDS011;53177;52.648;1.214;2023-06-26T11:48:57;5.75;;;1.23;;
66380;SDS011;53177;52.648;1.214;2023-06-26T11:51:22;4.20;;;1.20;;
66380;SDS011;53177;52.648;1.214;2023-06-26T11:53:49;4.90;;;1.20;;
66380;SDS011;53177;52.648;1.214;2023-06-26T11:56:15;5.78;;;1.10;;
66380;SDS011;53177;52.648;1.214;2023-06-26T11:59:01;6.13;;;1.40;;
66380;SDS011;53177;52.648;1.214;2023-06-26T12:01:36;7.30;;;1.10;;
66380;SDS011;53177;52.648;1.214;2023-06-26T12:04:04;4.07;;;0.90;;
66380;SDS011;53177;52.648;1.214;2023-06-26T12:06:31;4.03;;;1.00;;
66380;SDS011;53177;52.648;1.214;2023-06-26T12:08:59;4.57;;;0.90;;
66380;SDS011;53177;52.648;1.214;2023-06-26T12:11:26;4.75;;;1.10;;
66380;SDS011;53177;52.648;1.214;2023-06-26T12:13:53;3.70;;;1.00;;
66380;SDS011;53177;52.648;1.214;2023-06-26T12:16:19;5.00;;;1.13;;
66380;SDS011;53177;52.648;1.214;2023-06-26T12:18:45;5.05;;;1.20;;
66380;SDS011;53177;52.648;1.214;2023-06-26T12:24:16;5.65;;;1.10;;
66380;SDS011;53177;52.648;1.214;2023-06-26T12:26:47;5.75;;;1.10;;
66380;SDS011;53177;52.648;1.214;2023-06-26T12:29:19;4.75;;;1.20;;
66380;SDS011;53177;52.648;1.214;2023-06-26T12:31:49;5.35;;;1.10;;
66380;SDS011;53177;52.648;1.214;2023-06-26T12:34:17;6.17;;;1.30;;
66380;SDS011;53177;52.648;1.214;2023-06-26T12:36:49;4.25;;;1.10;;
66380;SDS011;53177;52.648;1.214;2023-06-26T12:39:16;5.40;;;1.10;;
66380;SDS011;53177;52.648;1.214;2023-06-26T12:41:51;3.80;;;1.02;;
66380;SDS011;53177;52.648;1.214;2023-06-26T12:44:22;3.72;;;1.10;;
66380;SDS011;53177;52.648;1.214;2023-06-26T12:46:53;6.53;;;1.30;;
66380;SDS011;53177;52.648;1.214;2023-06-26T12:49:55;3.85;;;1.08;;
66380;SDS011;53177;52.648;1.214;2023-06-26T12:52:17;5.07;;;1.25;;
66380;SDS011;53177;52.648;1.214;2023-06-26T12:54:46;5.70;;;1.20;;
66380;SDS011;53177;52.648;1.214;2023-06-26T12:57:17;5.50;;;1.48;;
66380;SDS011;53177;52.648;1.214;2023-06-26T12:59:42;5.10;;;1.20;;
66380;SDS011;53177;52.648;1.214;2023-06-26T13:02:09;4.35;;;1.00;;
66380;SDS011;53177;52.648;1.214;2023-06-26T13:04:36;4.67;;;1.13;;
66380;SDS011;53177;52.648;1.214;2023-06-26T13:07:04;4.88;;;1.30;;
66380;SDS011;53177;52.648;1.214;2023-06-26T13:09:31;5.13;;;1.20;;
66380;SDS011;53177;52.648;1.214;2023-06-26T13:11:58;5.55;;;1.38;;
66380;SDS011;53177;52.648;1.214;2023-06-26T13:14:24;6.17;;;1.27;;
66380;SDS011;53177;52.648;1.214;2023-06-26T13:16:49;4.93;;;1.10;;
66380;SDS011;53177;52.648;1.214;2023-06-26T13:19:15;4.55;;;1.15;;
66380;SDS011;53177;52.648;1.214;2023-06-26T13:21:40;5.67;;;1.10;;
66380;SDS011;53177;52.648;1.214;2023-06-26T13:24:06;4.82;;;1.15;;
66380;SDS011;53177;52.648;1.214;2023-06-26T13:26:32;5.80;;;1.20;;
66380;SDS011;53177;52.648;1.214;2023-06-26T13:28:58;5.28;;;1.30;;
66380;SDS011;53177;52.648;1.214;2023-06-26T13:31:23;4.83;;;1.20;;
66380;SDS011;53177;52.648;1.214;2023-06-26T13:33:49;3.93;;;1.30;;
66380;SDS011;53177;52.648;1.214;2023-06-26T13:36:15;3.97;;;1.10;;
66380;SDS011;53177;52.648;1.214;2023-06-26T13:38:41;6.88;;;1.25;;
66380;SDS011;53177;52.648;1.214;2023-06-26T13:41:06;4.13;;;1.20;;
66380;SDS011;53177;52.648;1.214;2023-06-26T13:43:32;4.97;;;1.50;;
66380;SDS011;53177;52.648;1.214;2023-06-26T13:45:57;4.95;;;1.20;;
66380;SDS011;53177;52.648;1.214;2023-06-26T13:48:23;5.47;;;1.30;;
66380;SDS011;53177;52.648;1.214;2023-06-26T13:50:51;5.72;;;1.30;;
66380;SDS011;53177;52.648;1.214;2023-06-26T13:53:17;5.68;;;1.30;;
66380;SDS011;53177;52.648;1.214;2023-06-26T13:55:43;5.03;;;1.10;;
66380;SDS011;53177;52.648;1.214;2023-06-26T13:58:08;7.80;;;1.27;;
66380;SDS011;53177;52.648;1.214;2023-06-26T14:00:35;5.57;;;1.17;;
66380;SDS011;53177;52.648;1.214;2023-06-26T14:03:01;5.57;;;1.40;;
66380;SDS011;53177;52.648;1.214;2023-06-26T14:05:28;5.85;;;0.90;;
66380;SDS011;53177;52.648;1.214;2023-06-26T14:07:54;4.32;;;1.30;;
66380;SDS011;53177;52.648;1.214;2023-06-26T14:10:20;5.30;;;1.03;;
66380;SDS011;53177;52.648;1.214;2023-06-26T14:12:48;5.55;;;1.15;;
66380;SDS011;53177;52.648;1.214;2023-06-26T14:15:13;4.73;;;1.17;;
66380;SDS011;53177;52.648;1.214;2023-06-26T14:17:39;5.60;;;1.30;;
66380;SDS011;53177;52.648;1.214;2023-06-26T14:20:08;4.33;;;1.10;;
66380;SDS011;53177;52.648;1.214;2023-06-26T14:22:41;5.30;;;1.15;;
66380;SDS011;53177;52.648;1.214;2023-06-26T14:25:08;6.53;;;1.25;;
66380;SDS011;53177;52.648;1.214;2023-06-26T14:27:37;6.10;;;1.30;;
66380;SDS011;53177;52.648;1.214;2023-06-26T14:30:04;6.60;;;1.10;;
66380;SDS011;53177;52.648;1.214;2023-06-26T14:32:32;4.83;;;1.20;;
66380;SDS011;53177;52.648;1.214;2023-06-26T14:34:58;5.35;;;1.20;;
66380;SDS011;53177;52.648;1.214;2023-06-26T14:37:24;4.37;;;1.30;;
66380;SDS011;53177;52.648;1.214;2023-06-26T14:39:51;4.70;;;0.90;;
66380;SDS011;53177;52.648;1.214;2023-06-26T14:42:16;3.90;;;1.10;;
66380;SDS011;53177;52.648;1.214;2023-06-26T14:44:41;6.17;;;1.33;;
66380;SDS011;53177;52.648;1.214;2023-06-26T14:47:07;6.50;;;1.30;;
66380;SDS011;53177;52.648;1.214;2023-06-26T14:49:32;6.93;;;1.60;;
66380;SDS011;53177;52.648;1.214;2023-06-26T14:51:58;6.00;;;1.43;;
66380;SDS011;53177;52.648;1.214;2023-06-26T14:54:23;6.75;;;1.40;;
66380;SDS011;53177;52.648;1.214;2023-06-26T14:56:49;4.80;;;1.00;;
66380;SDS011;53177;52.648;1.214;2023-06-26T14:59:14;7.47;;;1.40;;
66380;SDS011;53177;52.648;1.214;2023-06-26T15:01:39;5.00;;;1.20;;